createdAt,value
2023-01-29T00:00:14.929Z,102074.69
2023-01-29T00:02:42.763Z,102078.84
2023-01-29T00:05:26.469Z,102077.72
2023-01-29T00:07:56.900Z,102082.22
2023-01-29T00:10:27.752Z,102071.72
2023-01-29T00:12:55.677Z,102079.22
2023-01-29T00:15:22.905Z,102071.22
2023-01-29T00:17:50.170Z,102066.75
2023-01-29T00:20:18.639Z,102075.00
2023-01-29T00:22:46.101Z,102074.16
2023-01-29T00:25:13.384Z,102075.72
2023-01-29T00:27:40.740Z,102080.59
2023-01-29T00:30:19.306Z,102082.22
2023-01-29T00:32:46.983Z,102091.78
2023-01-29T00:35:14.289Z,102090.16
2023-01-29T00:37:41.718Z,102091.56
2023-01-29T00:40:09.874Z,102093.38
2023-01-29T00:42:55.225Z,102086.81
2023-01-29T00:45:22.493Z,102078.72
2023-01-29T00:47:50.635Z,102078.31
2023-01-29T00:50:18.800Z,102065.03
2023-01-29T00:52:46.322Z,102075.66
2023-01-29T00:55:13.992Z,102077.91
2023-01-29T00:57:41.788Z,102082.97
2023-01-29T01:00:14.810Z,102081.06
2023-01-29T01:03:21.347Z,102085.00
2023-01-29T01:05:48.669Z,102089.84
2023-01-29T01:08:34.898Z,102102.75
2023-01-29T01:11:04.503Z,102100.28
2023-01-29T01:13:35.030Z,102103.63
2023-01-29T01:16:02.839Z,102106.13
2023-01-29T01:18:31.252Z,102104.16
2023-01-29T01:20:59.605Z,102093.88
2023-01-29T01:23:27.951Z,102096.16
2023-01-29T01:25:55.796Z,102104.47
2023-01-29T01:28:23.266Z,102103.53
2023-01-29T01:30:50.594Z,102109.47
2023-01-29T01:33:18.461Z,102113.09
2023-01-29T01:35:45.781Z,102116.88
2023-01-29T01:38:13.138Z,102111.13
2023-01-29T01:40:45.243Z,102114.50
2023-01-29T01:43:13.471Z,102109.66
2023-01-29T01:45:40.986Z,102102.38
2023-01-29T01:48:26.120Z,102106.09
2023-01-29T01:51:00.769Z,102100.53
2023-01-29T01:53:34.966Z,102099.25
2023-01-29T01:56:07.167Z,102102.59
2023-01-29T01:58:50.642Z,102105.81
2023-01-29T02:01:18.938Z,102108.69
2023-01-29T02:04:13.387Z,102105.13
2023-01-29T02:07:00.318Z,102108.94
2023-01-29T02:09:38.698Z,102111.63
2023-01-29T02:12:09.541Z,102113.06
2023-01-29T02:14:39.524Z,102119.13
2023-01-29T02:17:12.494Z,102128.47
2023-01-29T02:19:42.914Z,102127.13
2023-01-29T02:22:29.239Z,102135.13
2023-01-29T02:25:23.913Z,102132.28
2023-01-29T02:28:01.045Z,102132.75
2023-01-29T02:30:43.372Z,102140.09
2023-01-29T02:33:22.831Z,102139.94
2023-01-29T02:35:54.421Z,102125.22
2023-01-29T02:38:43.817Z,102138.47
2023-01-29T02:41:28.311Z,102139.53
2023-01-29T02:44:01.760Z,102136.88
2023-01-29T02:46:45.553Z,102132.66
2023-01-29T02:49:34.390Z,102131.91
2023-01-29T02:52:16.039Z,102124.63
2023-01-29T02:54:51.707Z,102123.03
2023-01-29T02:57:29.440Z,102132.72
2023-01-29T03:00:34.094Z,102125.38
2023-01-29T03:03:12.890Z,102129.63
2023-01-29T03:05:45.765Z,102124.06
2023-01-29T03:08:20.327Z,102128.06
2023-01-29T03:10:55.019Z,102138.03
2023-01-29T03:13:50.058Z,102134.28
2023-01-29T03:16:23.559Z,102140.66
2023-01-29T03:19:00.348Z,102155.34
2023-01-29T03:22:01.864Z,102159.50
2023-01-29T03:24:55.601Z,102159.78
2023-01-29T03:27:55.757Z,102163.25
2023-01-29T03:30:44.379Z,102166.19
2023-01-29T03:33:32.985Z,102162.91
2023-01-29T03:36:08.986Z,102172.41
2023-01-29T03:38:37.222Z,102184.19
2023-01-29T03:41:17.031Z,102180.81
2023-01-29T03:44:02.244Z,102181.66
2023-01-29T03:46:41.741Z,102182.63
2023-01-29T03:49:41.909Z,102178.44
2023-01-29T03:52:18.209Z,102181.72
2023-01-29T03:55:01.320Z,102178.19
2023-01-29T03:57:58.772Z,102177.75
2023-01-29T04:00:32.441Z,102178.28
2023-01-29T04:03:17.020Z,102163.66
2023-01-29T04:05:51.920Z,102160.16
2023-01-29T04:08:30.557Z,102151.66
2023-01-29T04:11:06.809Z,102157.25
2023-01-29T04:13:36.643Z,102163.25
2023-01-29T04:16:08.307Z,102162.88
2023-01-29T04:18:54.351Z,102162.69
2023-01-29T04:21:32.850Z,102163.53
2023-01-29T04:24:00.752Z,102157.22
2023-01-29T04:26:28.080Z,102160.97
2023-01-29T04:29:05.824Z,102158.59
2023-01-29T04:31:43.518Z,102161.66
2023-01-29T04:34:26.102Z,102157.03
2023-01-29T04:37:23.156Z,102158.50
2023-01-29T04:40:05.652Z,102162.31
2023-01-29T04:42:44.839Z,102163.19
2023-01-29T04:45:22.748Z,102160.78
2023-01-29T04:48:20.757Z,102158.19
2023-01-29T04:51:08.444Z,102163.56
2023-01-29T04:54:02.594Z,102167.69
2023-01-29T04:56:44.901Z,102180.22
2023-01-29T04:59:17.734Z,102175.34
2023-01-29T05:01:45.550Z,102173.59
2023-01-29T05:04:17.389Z,102178.88
2023-01-29T05:06:46.722Z,102179.03
2023-01-29T05:09:17.562Z,102180.81
2023-01-29T05:11:47.656Z,102182.56
2023-01-29T05:14:18.344Z,102185.63
2023-01-29T05:16:49.705Z,102185.97
2023-01-29T05:19:17.983Z,102188.56
2023-01-29T05:21:48.684Z,102185.25
2023-01-29T05:24:17.764Z,102194.91
2023-01-29T05:27:06.413Z,102196.06
2023-01-29T05:29:34.640Z,102194.56
2023-01-29T05:32:02.164Z,102194.88
2023-01-29T05:34:29.559Z,102204.94
2023-01-29T05:36:57.323Z,102199.34
2023-01-29T05:39:24.630Z,102200.84
2023-01-29T05:41:52.092Z,102201.25
2023-01-29T05:44:20.470Z,102204.09
2023-01-29T05:46:47.912Z,102206.06
2023-01-29T05:49:17.897Z,102203.31
2023-01-29T05:51:45.784Z,102203.94
2023-01-29T05:54:13.564Z,102203.91
2023-01-29T05:56:41.312Z,102196.25
2023-01-29T05:59:08.785Z,102191.97
2023-01-29T06:01:36.257Z,102199.19
2023-01-29T06:04:03.642Z,102196.16
2023-01-29T06:06:31.038Z,102194.53
2023-01-29T06:08:58.671Z,102199.13
2023-01-29T06:11:26.078Z,102202.13
2023-01-29T06:13:54.768Z,102211.25
2023-01-29T06:16:22.304Z,102209.03
2023-01-29T06:18:49.584Z,102208.56
2023-01-29T06:21:19.903Z,102214.66
2023-01-29T06:23:47.483Z,102223.22
2023-01-29T06:26:15.865Z,102224.25
2023-01-29T06:28:45.134Z,102230.13
2023-01-29T06:31:27.450Z,102232.19
2023-01-29T06:33:59.839Z,102236.84
2023-01-29T06:36:27.555Z,102245.41
2023-01-29T06:38:54.813Z,102239.34
2023-01-29T06:41:25.290Z,102242.44
2023-01-29T06:43:52.680Z,102239.50
2023-01-29T06:46:20.031Z,102251.84
2023-01-29T06:48:47.477Z,102256.00
2023-01-29T06:51:14.754Z,102253.81
2023-01-29T06:53:44.016Z,102248.69
2023-01-29T06:56:13.190Z,102250.81
2023-01-29T06:58:40.502Z,102251.31
2023-01-29T07:01:13.885Z,102252.78
2023-01-29T07:03:51.293Z,102255.28
2023-01-29T07:06:19.322Z,102267.00
2023-01-29T07:08:46.647Z,102271.13
2023-01-29T07:11:13.965Z,102278.56
2023-01-29T07:13:41.306Z,102279.50
2023-01-29T07:16:09.759Z,102286.50
2023-01-29T07:18:37.416Z,102286.84
2023-01-29T07:21:07.450Z,102288.13
2023-01-29T07:23:35.251Z,102297.66
2023-01-29T07:26:05.067Z,102300.31
2023-01-29T07:28:36.444Z,102303.97
2023-01-29T07:31:04.442Z,102308.84
2023-01-29T07:33:32.346Z,102311.22
2023-01-29T07:35:59.796Z,102313.75
2023-01-29T07:38:27.508Z,102320.81
2023-01-29T07:40:55.134Z,102314.66
2023-01-29T07:43:24.867Z,102318.06
2023-01-29T07:45:52.476Z,102321.78
2023-01-29T07:48:19.880Z,102325.31
2023-01-29T07:50:55.360Z,102332.97
2023-01-29T07:53:23.159Z,102334.19
2023-01-29T07:55:50.749Z,102337.28
2023-01-29T07:58:18.094Z,102340.63
2023-01-29T08:00:46.075Z,102342.56
2023-01-29T08:03:16.599Z,102343.91
2023-01-29T08:05:44.949Z,102346.41
2023-01-29T08:08:12.567Z,102350.53
2023-01-29T08:10:43.174Z,102346.19
2023-01-29T08:13:11.057Z,102353.63
2023-01-29T08:15:39.373Z,102358.81
2023-01-29T08:18:06.835Z,102366.88
2023-01-29T08:20:34.327Z,102365.13
2023-01-29T08:23:10.195Z,102368.19
2023-01-29T08:25:37.560Z,102364.94
2023-01-29T08:28:05.410Z,102366.69
2023-01-29T08:30:34.199Z,102372.88
2023-01-29T08:33:04.117Z,102364.41
2023-01-29T08:35:31.855Z,102367.13
2023-01-29T08:38:01.617Z,102366.25
2023-01-29T08:40:34.528Z,102381.38
2023-01-29T08:43:06.190Z,102364.97
2023-01-29T08:45:37.330Z,102365.88
2023-01-29T08:48:05.080Z,102365.44
2023-01-29T08:50:34.752Z,102360.91
2023-01-29T08:53:07.609Z,102366.94
2023-01-29T08:55:40.059Z,102369.97
2023-01-29T08:58:09.480Z,102375.72
2023-01-29T09:00:38.050Z,102371.63
2023-01-29T09:03:07.903Z,102379.78
2023-01-29T09:05:40.018Z,102381.22
2023-01-29T09:08:09.848Z,102377.47
2023-01-29T09:10:37.472Z,102381.44
2023-01-29T09:13:05.060Z,102379.56
2023-01-29T09:15:32.396Z,102381.53
2023-01-29T09:18:03.909Z,102386.00
2023-01-29T09:20:31.598Z,102389.25
2023-01-29T09:22:59.304Z,102401.84
2023-01-29T09:25:27.032Z,102397.97
2023-01-29T09:27:55.021Z,102399.97
2023-01-29T09:30:22.332Z,102407.69
2023-01-29T09:32:54.263Z,102402.34
2023-01-29T09:35:23.610Z,102402.84
2023-01-29T09:37:51.974Z,102406.28
2023-01-29T09:40:34.139Z,102402.94
2023-01-29T09:43:07.823Z,102398.56
2023-01-29T09:45:36.931Z,102399.84
2023-01-29T09:48:05.797Z,102404.47
2023-01-29T09:50:39.856Z,102405.63
2023-01-29T09:53:30.342Z,102406.50
2023-01-29T09:56:06.099Z,102400.06
2023-01-29T09:58:38.849Z,102393.91
2023-01-29T10:01:42.573Z,102400.44
2023-01-29T10:04:31.707Z,102396.91
2023-01-29T10:07:20.353Z,102396.34
2023-01-29T10:10:07.590Z,102393.50
2023-01-29T10:12:48.415Z,102379.91
2023-01-29T10:15:35.968Z,102383.06
2023-01-29T10:18:30.249Z,102379.81
2023-01-29T10:21:17.314Z,102373.34
2023-01-29T10:23:57.544Z,102378.63
2023-01-29T10:26:27.465Z,102370.66
2023-01-29T10:28:57.323Z,102367.94
2023-01-29T10:31:32.813Z,102373.75
2023-01-29T10:34:07.194Z,102367.31
2023-01-29T10:36:42.843Z,102363.75
2023-01-29T10:39:21.459Z,102352.09
2023-01-29T10:42:24.338Z,102356.47
2023-01-29T10:45:22.293Z,102344.34
2023-01-29T10:48:14.222Z,102345.91
2023-01-29T10:50:57.641Z,102340.81
2023-01-29T10:53:43.417Z,102345.72
2023-01-29T10:56:31.421Z,102330.19
2023-01-29T10:59:09.096Z,102331.00
2023-01-29T11:01:36.532Z,102331.13
2023-01-29T11:04:10.097Z,102313.00
2023-01-29T11:06:37.891Z,102308.97
2023-01-29T11:09:28.725Z,102310.06
2023-01-29T11:12:14.101Z,102302.13
2023-01-29T11:14:46.875Z,102301.34
2023-01-29T11:17:19.923Z,102293.75
2023-01-29T11:19:49.911Z,102275.97
2023-01-29T11:22:20.348Z,102278.75
2023-01-29T11:25:19.751Z,102276.50
2023-01-29T11:27:50.568Z,102272.97
2023-01-29T11:30:23.672Z,102263.81
2023-01-29T11:33:07.579Z,102258.75
2023-01-29T11:35:36.539Z,102259.50
2023-01-29T11:38:25.387Z,102244.34
2023-01-29T11:41:04.674Z,102235.06
2023-01-29T11:43:32.769Z,102236.22
2023-01-29T11:46:05.941Z,102228.56
2023-01-29T11:48:41.062Z,102219.34
2023-01-29T11:51:12.231Z,102225.09
2023-01-29T11:53:43.451Z,102211.38
2023-01-29T11:56:34.113Z,102202.31
2023-01-29T11:59:04.537Z,102199.81
2023-01-29T12:01:36.512Z,102198.28
2023-01-29T12:04:15.036Z,102191.84
2023-01-29T12:06:47.891Z,102185.72
2023-01-29T12:09:20.468Z,102183.00
2023-01-29T12:11:48.165Z,102181.47
2023-01-29T12:14:27.554Z,102179.72
2023-01-29T12:17:16.409Z,102182.44
2023-01-29T12:19:51.403Z,102175.03
2023-01-29T12:22:21.700Z,102172.91
2023-01-29T12:25:04.163Z,102162.91
2023-01-29T12:27:46.159Z,102174.72
2023-01-29T12:30:22.600Z,102171.47
2023-01-29T12:32:58.338Z,102171.00
2023-01-29T12:35:33.414Z,102167.19
2023-01-29T12:38:14.289Z,102164.94
2023-01-29T12:40:59.785Z,102161.28
2023-01-29T12:43:40.128Z,102156.72
2023-01-29T12:46:21.494Z,102160.06
2023-01-29T12:48:50.597Z,102152.78
2023-01-29T12:51:24.211Z,102146.25
2023-01-29T12:54:04.907Z,102146.69
2023-01-29T12:56:37.059Z,102139.44
2023-01-29T12:59:30.640Z,102142.69
2023-01-29T13:02:30.164Z,102139.53
2023-01-29T13:05:03.988Z,102131.72
2023-01-29T13:07:40.170Z,102119.47
2023-01-29T13:10:14.969Z,102118.00
2023-01-29T13:12:54.438Z,102113.19
2023-01-29T13:15:32.161Z,102109.31
2023-01-29T13:18:26.396Z,102105.50
2023-01-29T13:20:54.457Z,102091.06
2023-01-29T13:23:29.448Z,102083.53
2023-01-29T13:25:57.352Z,102088.22
2023-01-29T13:28:27.061Z,102090.22
2023-01-29T13:31:21.079Z,102083.81
2023-01-29T13:34:10.913Z,102080.22
2023-01-29T13:36:44.496Z,102070.91
2023-01-29T13:39:33.722Z,102075.59
2023-01-29T13:42:03.965Z,102067.19
2023-01-29T13:44:40.032Z,102065.97
2023-01-29T13:47:11.689Z,102067.03
2023-01-29T13:49:46.939Z,102061.56
2023-01-29T13:52:29.165Z,102065.00
2023-01-29T13:55:02.459Z,102056.09
2023-01-29T13:57:48.905Z,102046.22
2023-01-29T14:00:22.663Z,102045.44
2023-01-29T14:02:55.937Z,102046.22
2023-01-29T14:05:32.194Z,102047.97
2023-01-29T14:08:17.598Z,102040.06
2023-01-29T14:10:45.529Z,102045.88
2023-01-29T14:13:15.628Z,102043.22
2023-01-29T14:15:42.922Z,102041.94
2023-01-29T14:18:18.781Z,102059.25
2023-01-29T14:20:49.514Z,102048.38
2023-01-29T14:23:42.118Z,102034.78
2023-01-29T14:26:20.250Z,102044.06
2023-01-29T14:28:58.672Z,102033.81
2023-01-29T14:31:29.844Z,102044.72
2023-01-29T14:34:02.472Z,102032.34
2023-01-29T14:36:40.024Z,102029.28
2023-01-29T14:39:19.000Z,102036.00
2023-01-29T14:41:46.820Z,102034.75
2023-01-29T14:44:45.555Z,102037.53
2023-01-29T14:47:43.248Z,102034.25
2023-01-29T14:50:28.829Z,102031.81
2023-01-29T14:53:16.449Z,102035.16
2023-01-29T14:55:50.944Z,102035.00
2023-01-29T14:58:35.769Z,102046.25
2023-01-29T15:01:07.366Z,102037.41
2023-01-29T15:03:41.794Z,102033.25
2023-01-29T15:06:15.430Z,102022.94
2023-01-29T15:08:51.047Z,102024.56
2023-01-29T15:11:36.514Z,102028.03
2023-01-29T15:14:24.620Z,102019.19
2023-01-29T15:17:18.616Z,102022.13
2023-01-29T15:19:48.405Z,102005.66
2023-01-29T15:22:18.893Z,102013.94
2023-01-29T15:24:48.355Z,102015.28
2023-01-29T15:27:20.404Z,102014.91
2023-01-29T15:29:56.277Z,102004.81
2023-01-29T15:32:31.276Z,102004.81
2023-01-29T15:35:00.394Z,102004.63
2023-01-29T15:37:31.450Z,102004.13
2023-01-29T15:40:00.367Z,102006.50
2023-01-29T15:42:29.441Z,102006.56
2023-01-29T15:44:56.791Z,102009.44
2023-01-29T15:47:30.844Z,102008.53
2023-01-29T15:49:58.426Z,102006.41
2023-01-29T15:52:31.215Z,102006.13
2023-01-29T15:55:05.637Z,102010.03
2023-01-29T15:57:40.648Z,102021.22
2023-01-29T16:00:18.344Z,102013.16
2023-01-29T16:02:45.812Z,102013.59
2023-01-29T16:05:39.686Z,102016.88
2023-01-29T16:08:12.894Z,102012.56
2023-01-29T16:10:42.603Z,102012.00
2023-01-29T16:13:20.601Z,102012.00
2023-01-29T16:16:04.181Z,102019.59
2023-01-29T16:18:42.872Z,102022.47
2023-01-29T16:21:30.439Z,102026.44
2023-01-29T16:24:03.545Z,102024.31
2023-01-29T16:26:44.199Z,102024.16
2023-01-29T16:29:14.695Z,102018.03
2023-01-29T16:31:44.393Z,102016.75
2023-01-29T16:34:24.320Z,102018.28
2023-01-29T16:36:54.663Z,102015.44
2023-01-29T16:39:25.492Z,102007.16
2023-01-29T16:42:20.304Z,102015.25
2023-01-29T16:44:57.309Z,102014.09
2023-01-29T16:47:33.853Z,102010.13
2023-01-29T16:50:24.586Z,102019.88
2023-01-29T16:52:58.136Z,102022.72
2023-01-29T16:55:26.549Z,102026.81
2023-01-29T16:57:56.050Z,102035.31
2023-01-29T17:00:25.780Z,102038.28
2023-01-29T17:03:00.850Z,102035.66
2023-01-29T17:05:31.670Z,102047.00
2023-01-29T17:08:00.161Z,102047.53
2023-01-29T17:10:29.597Z,102054.88
2023-01-29T17:12:58.515Z,102059.06
2023-01-29T17:15:46.868Z,102058.91
2023-01-29T17:18:22.308Z,102060.00
2023-01-29T17:20:55.322Z,102061.09
2023-01-29T17:23:23.367Z,102061.47
2023-01-29T17:25:51.763Z,102064.50
2023-01-29T17:28:19.335Z,102057.00
2023-01-29T17:31:00.091Z,102069.50
2023-01-29T17:33:33.298Z,102066.72
2023-01-29T17:36:01.228Z,102068.03
2023-01-29T17:38:28.598Z,102067.44
2023-01-29T17:41:00.449Z,102070.03
2023-01-29T17:43:28.550Z,102062.88
2023-01-29T17:45:56.925Z,102072.59
2023-01-29T17:48:26.362Z,102073.22
2023-01-29T17:50:57.024Z,102078.63
2023-01-29T17:53:26.558Z,102072.75
2023-01-29T17:55:57.721Z,102073.13
2023-01-29T17:58:27.289Z,102072.41
2023-01-29T18:00:55.225Z,102068.97
2023-01-29T18:03:22.967Z,102071.06
2023-01-29T18:05:50.492Z,102071.16
2023-01-29T18:08:26.974Z,102071.41
2023-01-29T18:10:54.312Z,102076.44
2023-01-29T18:13:22.299Z,102067.63
2023-01-29T18:15:50.505Z,102070.09
2023-01-29T18:18:22.874Z,102068.50
2023-01-29T18:20:50.856Z,102068.50
2023-01-29T18:23:18.265Z,102064.06
2023-01-29T18:25:46.565Z,102061.28
2023-01-29T18:28:17.947Z,102059.56
2023-01-29T18:30:47.233Z,102063.59
2023-01-29T18:33:16.468Z,102062.00
2023-01-29T18:35:45.162Z,102058.44
2023-01-29T18:38:12.974Z,102053.56
2023-01-29T18:40:40.860Z,102053.44
2023-01-29T18:43:08.917Z,102058.34
2023-01-29T18:45:36.300Z,102056.72
2023-01-29T18:48:03.784Z,102051.13
2023-01-29T18:50:31.294Z,102056.53
2023-01-29T18:52:58.866Z,102056.31
2023-01-29T18:55:26.996Z,102059.91
2023-01-29T18:58:33.664Z,102057.53
2023-01-29T19:00:42.044Z,102060.56
2023-01-29T19:03:10.564Z,102055.38
2023-01-29T19:05:38.315Z,102070.47
2023-01-29T19:08:06.373Z,102059.81
2023-01-29T19:10:34.311Z,102054.44
2023-01-29T19:13:02.219Z,102055.56
2023-01-29T19:15:29.599Z,102050.31
2023-01-29T19:17:56.920Z,102053.91
2023-01-29T19:20:24.771Z,102061.22
2023-01-29T19:22:52.009Z,102061.81
2023-01-29T19:25:19.773Z,102056.28
2023-01-29T19:27:47.649Z,102068.34
2023-01-29T19:30:15.777Z,102073.28
2023-01-29T19:32:43.052Z,102075.72
2023-01-29T19:35:10.401Z,102071.88
2023-01-29T19:37:38.161Z,102067.16
2023-01-29T19:40:05.940Z,102071.53
2023-01-29T19:42:35.447Z,102068.34
2023-01-29T19:45:04.816Z,102077.97
2023-01-29T19:47:33.656Z,102075.69
2023-01-29T19:50:00.971Z,102078.81
2023-01-29T19:52:51.432Z,102073.97
2023-01-29T19:55:21.012Z,102083.09
2023-01-29T19:57:52.165Z,102077.56
2023-01-29T20:00:20.077Z,102075.44
2023-01-29T20:02:47.926Z,102078.91
2023-01-29T20:05:18.428Z,102072.75
2023-01-29T20:07:46.455Z,102071.44
2023-01-29T20:10:17.386Z,102077.44
2023-01-29T20:12:46.043Z,102076.34
2023-01-29T20:15:15.023Z,102077.16
2023-01-29T20:17:45.529Z,102079.03
2023-01-29T20:20:14.505Z,102076.66
2023-01-29T20:22:42.851Z,102080.06
2023-01-29T20:25:13.550Z,102081.50
2023-01-29T20:27:41.686Z,102079.78
2023-01-29T20:30:09.651Z,102086.28
2023-01-29T20:32:37.393Z,102093.78
2023-01-29T20:35:05.029Z,102083.69
2023-01-29T20:37:32.422Z,102085.84
2023-01-29T20:39:59.741Z,102085.22
2023-01-29T20:42:27.239Z,102090.59
2023-01-29T20:44:54.561Z,102088.03
2023-01-29T20:47:22.244Z,102093.00
2023-01-29T20:49:49.571Z,102090.22
2023-01-29T20:52:17.497Z,102085.50
2023-01-29T20:54:44.887Z,102091.22
2023-01-29T20:57:12.750Z,102085.09
2023-01-29T20:59:40.221Z,102089.16
2023-01-29T21:02:10.789Z,102073.44
2023-01-29T21:04:38.114Z,102085.84
2023-01-29T21:07:05.422Z,102081.19
2023-01-29T21:09:33.330Z,102085.41
2023-01-29T21:12:02.147Z,102090.94
2023-01-29T21:14:29.421Z,102093.22
2023-01-29T21:16:56.714Z,102091.28
2023-01-29T21:19:24.442Z,102092.75
2023-01-29T21:21:52.291Z,102091.97
2023-01-29T21:24:19.932Z,102084.47
2023-01-29T21:26:47.869Z,102084.94
2023-01-29T21:29:16.207Z,102087.94
2023-01-29T21:31:44.262Z,102082.91
2023-01-29T21:34:12.054Z,102079.91
2023-01-29T21:36:39.426Z,102085.38
2023-01-29T21:39:16.661Z,102070.75
2023-01-29T21:42:04.326Z,102083.00
2023-01-29T21:44:33.560Z,102085.09
2023-01-29T21:47:01.592Z,102088.88
2023-01-29T21:49:29.215Z,102095.91
2023-01-29T21:51:56.509Z,102088.66
2023-01-29T21:54:23.870Z,102076.31
2023-01-29T21:56:51.220Z,102085.56
2023-01-29T21:59:19.950Z,102076.16
2023-01-29T22:01:47.345Z,102079.47
2023-01-29T22:04:15.726Z,102079.03
2023-01-29T22:06:43.796Z,102088.97
2023-01-29T22:09:11.058Z,102084.72
2023-01-29T22:11:41.588Z,102088.03
2023-01-29T22:14:09.052Z,102082.00
2023-01-29T22:16:37.227Z,102089.66
2023-01-29T22:19:04.789Z,102084.44
2023-01-29T22:21:33.512Z,102081.56
2023-01-29T22:24:02.771Z,102075.44
2023-01-29T22:26:30.909Z,102077.97
2023-01-29T22:28:58.378Z,102079.91
2023-01-29T22:31:25.771Z,102075.50
2023-01-29T22:33:53.474Z,102072.66
2023-01-29T22:36:20.711Z,102071.78
2023-01-29T22:38:48.356Z,102062.19
2023-01-29T22:41:15.654Z,102055.75
2023-01-29T22:43:44.059Z,102057.34
2023-01-29T22:46:11.723Z,102070.41
2023-01-29T22:48:38.989Z,102073.34
2023-01-29T22:51:09.939Z,102073.16
2023-01-29T22:53:40.629Z,102077.38
2023-01-29T22:56:08.795Z,102073.03
2023-01-29T22:58:38.030Z,102066.72
2023-01-29T23:01:05.445Z,102057.34
2023-01-29T23:03:34.122Z,102058.56
2023-01-29T23:06:03.109Z,102055.56
2023-01-29T23:08:32.780Z,102059.72
2023-01-29T23:11:14.230Z,102056.94
2023-01-29T23:13:53.287Z,102056.94
2023-01-29T23:16:26.174Z,102054.25
2023-01-29T23:18:55.256Z,102059.06
2023-01-29T23:21:25.857Z,102050.50
2023-01-29T23:23:55.286Z,102047.28
2023-01-29T23:26:41.156Z,102048.22
2023-01-29T23:29:09.038Z,102057.03
2023-01-29T23:31:36.554Z,102048.56
2023-01-29T23:34:03.930Z,102053.59
2023-01-29T23:36:31.624Z,102052.66
2023-01-29T23:38:58.865Z,102047.81
2023-01-29T23:41:26.309Z,102051.09
2023-01-29T23:43:53.795Z,102047.66
2023-01-29T23:46:21.224Z,102042.72
2023-01-29T23:48:48.624Z,102047.03
2023-01-29T23:51:16.851Z,102041.00
2023-01-29T23:53:44.529Z,102041.41
2023-01-29T23:56:12.105Z,102036.22
2023-01-29T23:58:39.510Z,102037.06
